sensor_id;sensor_type;location;lat;lon;timestamp;P1;durP1;ratioP1;P2;durP2;ratioP2
76814;SDS011;65768;49.906;19.384;2023-12-04T00:00:22;24.30;;;10.30;;
76814;SDS011;65768;49.906;19.384;2023-12-04T00:03:31;22.30;;;8.10;;
76814;SDS011;65768;49.906;19.384;2023-12-04T00:06:00;19.90;;;9.40;;
76814;SDS011;65768;49.906;19.384;2023-12-04T00:08:28;25.90;;;10.60;;
76814;SDS011;65768;49.906;19.384;2023-12-04T00:10:56;22.30;;;10.30;;
76814;SDS011;65768;49.906;19.384;2023-12-04T00:13:24;18.70;;;8.30;;
76814;SDS011;65768;49.906;19.384;2023-12-04T00:15:53;20.90;;;9.00;;
76814;SDS011;65768;49.906;19.384;2023-12-04T00:18:21;16.70;;;8.60;;
76814;SDS011;65768;49.906;19.384;2023-12-04T00:20:49;15.20;;;7.40;;
76814;SDS011;65768;49.906;19.384;2023-12-04T00:23:18;17.60;;;8.60;;
76814;SDS011;65768;49.906;19.384;2023-12-04T00:25:46;14.50;;;7.70;;
76814;SDS011;65768;49.906;19.384;2023-12-04T00:28:14;17.00;;;9.00;;
76814;SDS011;65768;49.906;19.384;2023-12-04T00:30:42;18.50;;;8.70;;
76814;SDS011;65768;49.906;19.384;2023-12-04T00:33:10;20.60;;;8.80;;
76814;SDS011;65768;49.906;19.384;2023-12-04T00:35:38;16.40;;;8.30;;
76814;SDS011;65768;49.906;19.384;2023-12-04T00:38:16;16.50;;;8.80;;
76814;SDS011;65768;49.906;19.384;2023-12-04T00:40:44;13.60;;;7.90;;
76814;SDS011;65768;49.906;19.384;2023-12-04T00:43:13;17.90;;;8.20;;
76814;SDS011;65768;49.906;19.384;2023-12-04T00:45:43;17.90;;;8.40;;
76814;SDS011;65768;49.906;19.384;2023-12-04T00:48:13;18.10;;;8.20;;
76814;SDS011;65768;49.906;19.384;2023-12-04T00:50:42;18.10;;;8.20;;
76814;SDS011;65768;49.906;19.384;2023-12-04T00:53:12;19.70;;;8.50;;
76814;SDS011;65768;49.906;19.384;2023-12-04T00:55:40;16.40;;;7.90;;
76814;SDS011;65768;49.906;19.384;2023-12-04T00:58:09;16.10;;;8.10;;
76814;SDS011;65768;49.906;19.384;2023-12-04T01:00:38;21.60;;;9.00;;
76814;SDS011;65768;49.906;19.384;2023-12-04T01:03:06;23.70;;;10.20;;
76814;SDS011;65768;49.906;19.384;2023-12-04T01:05:34;20.00;;;8.90;;
76814;SDS011;65768;49.906;19.384;2023-12-04T01:08:02;20.70;;;10.00;;
76814;SDS011;65768;49.906;19.384;2023-12-04T01:10:31;20.60;;;10.00;;
76814;SDS011;65768;49.906;19.384;2023-12-04T01:12:59;24.50;;;11.80;;
76814;SDS011;65768;49.906;19.384;2023-12-04T01:15:27;24.40;;;10.30;;
76814;SDS011;65768;49.906;19.384;2023-12-04T01:17:55;22.60;;;9.60;;
76814;SDS011;65768;49.906;19.384;2023-12-04T01:20:23;19.20;;;9.30;;
76814;SDS011;65768;49.906;19.384;2023-12-04T01:22:52;21.80;;;9.70;;
76814;SDS011;65768;49.906;19.384;2023-12-04T01:25:21;32.90;;;15.50;;
76814;SDS011;65768;49.906;19.384;2023-12-04T01:27:51;36.60;;;18.90;;
76814;SDS011;65768;49.906;19.384;2023-12-04T01:30:19;34.00;;;16.80;;
76814;SDS011;65768;49.906;19.384;2023-12-04T01:32:47;26.70;;;11.50;;
76814;SDS011;65768;49.906;19.384;2023-12-04T01:35:16;19.70;;;9.10;;
76814;SDS011;65768;49.906;19.384;2023-12-04T01:37:46;18.80;;;8.90;;
76814;SDS011;65768;49.906;19.384;2023-12-04T01:40:14;17.30;;;7.90;;
76814;SDS011;65768;49.906;19.384;2023-12-04T01:42:42;16.70;;;7.90;;
76814;SDS011;65768;49.906;19.384;2023-12-04T01:45:10;18.00;;;9.00;;
76814;SDS011;65768;49.906;19.384;2023-12-04T01:47:39;20.20;;;10.20;;
76814;SDS011;65768;49.906;19.384;2023-12-04T01:50:08;22.30;;;11.10;;
76814;SDS011;65768;49.906;19.384;2023-12-04T01:52:37;19.70;;;10.00;;
76814;SDS011;65768;49.906;19.384;2023-12-04T01:55:08;17.70;;;9.00;;
76814;SDS011;65768;49.906;19.384;2023-12-04T01:57:39;17.50;;;9.20;;
76814;SDS011;65768;49.906;19.384;2023-12-04T02:00:07;20.30;;;9.30;;
76814;SDS011;65768;49.906;19.384;2023-12-04T02:02:40;18.70;;;8.80;;
76814;SDS011;65768;49.906;19.384;2023-12-04T02:05:11;22.10;;;8.90;;
76814;SDS011;65768;49.906;19.384;2023-12-04T02:07:45;18.50;;;11.40;;
76814;SDS011;65768;49.906;19.384;2023-12-04T02:10:13;20.90;;;10.60;;
76814;SDS011;65768;49.906;19.384;2023-12-04T02:12:42;24.80;;;10.60;;
76814;SDS011;65768;49.906;19.384;2023-12-04T02:15:10;21.00;;;8.70;;
76814;SDS011;65768;49.906;19.384;2023-12-04T02:17:38;17.30;;;8.40;;
76814;SDS011;65768;49.906;19.384;2023-12-04T02:20:09;18.70;;;8.90;;
76814;SDS011;65768;49.906;19.384;2023-12-04T02:22:39;18.10;;;9.00;;
76814;SDS011;65768;49.906;19.384;2023-12-04T02:25:09;18.20;;;10.40;;
76814;SDS011;65768;49.906;19.384;2023-12-04T02:27:44;24.00;;;10.90;;
76814;SDS011;65768;49.906;19.384;2023-12-04T02:30:19;26.80;;;11.80;;
76814;SDS011;65768;49.906;19.384;2023-12-04T02:32:52;32.60;;;14.40;;
76814;SDS011;65768;49.906;19.384;2023-12-04T02:35:23;28.50;;;12.00;;
76814;SDS011;65768;49.906;19.384;2023-12-04T02:37:54;25.50;;;12.40;;
76814;SDS011;65768;49.906;19.384;2023-12-04T02:40:25;26.10;;;13.80;;
76814;SDS011;65768;49.906;19.384;2023-12-04T02:42:54;23.40;;;10.80;;
76814;SDS011;65768;49.906;19.384;2023-12-04T02:45:22;22.80;;;13.10;;
76814;SDS011;65768;49.906;19.384;2023-12-04T02:47:50;27.20;;;14.60;;
76814;SDS011;65768;49.906;19.384;2023-12-04T02:50:18;27.20;;;15.10;;
76814;SDS011;65768;49.906;19.384;2023-12-04T02:52:47;28.90;;;14.60;;
76814;SDS011;65768;49.906;19.384;2023-12-04T02:55:16;29.00;;;14.60;;
76814;SDS011;65768;49.906;19.384;2023-12-04T02:57:46;25.30;;;13.70;;
76814;SDS011;65768;49.906;19.384;2023-12-04T03:03:14;20.70;;;11.10;;
76814;SDS011;65768;49.906;19.384;2023-12-04T03:05:42;20.70;;;10.40;;
76814;SDS011;65768;49.906;19.384;2023-12-04T03:08:12;19.40;;;11.80;;
76814;SDS011;65768;49.906;19.384;2023-12-04T03:10:42;23.70;;;11.30;;
76814;SDS011;65768;49.906;19.384;2023-12-04T03:13:10;30.20;;;13.40;;
76814;SDS011;65768;49.906;19.384;2023-12-04T03:15:38;23.70;;;13.60;;
76814;SDS011;65768;49.906;19.384;2023-12-04T03:18:06;28.00;;;14.30;;
76814;SDS011;65768;49.906;19.384;2023-12-04T03:20:34;28.30;;;14.60;;
76814;SDS011;65768;49.906;19.384;2023-12-04T03:23:03;30.80;;;15.50;;
76814;SDS011;65768;49.906;19.384;2023-12-04T03:25:31;37.70;;;15.40;;
76814;SDS011;65768;49.906;19.384;2023-12-04T03:28:00;35.60;;;16.20;;
76814;SDS011;65768;49.906;19.384;2023-12-04T03:30:28;39.80;;;18.80;;
76814;SDS011;65768;49.906;19.384;2023-12-04T03:32:57;33.80;;;16.80;;
76814;SDS011;65768;49.906;19.384;2023-12-04T03:35:26;37.90;;;18.50;;
76814;SDS011;65768;49.906;19.384;2023-12-04T03:37:54;42.30;;;18.20;;
76814;SDS011;65768;49.906;19.384;2023-12-04T03:40:22;37.70;;;18.80;;
76814;SDS011;65768;49.906;19.384;2023-12-04T03:42:51;37.30;;;18.70;;
76814;SDS011;65768;49.906;19.384;2023-12-04T03:45:19;48.90;;;22.50;;
76814;SDS011;65768;49.906;19.384;2023-12-04T03:47:47;56.70;;;22.80;;
76814;SDS011;65768;49.906;19.384;2023-12-04T03:50:16;52.20;;;24.90;;
76814;SDS011;65768;49.906;19.384;2023-12-04T03:52:44;46.60;;;21.80;;
76814;SDS011;65768;49.906;19.384;2023-12-04T03:55:13;46.10;;;20.90;;
76814;SDS011;65768;49.906;19.384;2023-12-04T03:57:41;55.10;;;22.50;;
76814;SDS011;65768;49.906;19.384;2023-12-04T04:00:11;38.30;;;19.80;;
76814;SDS011;65768;49.906;19.384;2023-12-04T04:02:42;40.70;;;20.60;;
76814;SDS011;65768;49.906;19.384;2023-12-04T04:05:11;38.20;;;21.00;;
76814;SDS011;65768;49.906;19.384;2023-12-04T04:07:39;42.10;;;23.50;;
76814;SDS011;65768;49.906;19.384;2023-12-04T04:10:11;44.90;;;22.60;;
76814;SDS011;65768;49.906;19.384;2023-12-04T04:12:40;43.10;;;22.30;;
76814;SDS011;65768;49.906;19.384;2023-12-04T04:15:10;46.00;;;23.60;;
76814;SDS011;65768;49.906;19.384;2023-12-04T04:17:39;42.30;;;21.60;;
76814;SDS011;65768;49.906;19.384;2023-12-04T04:20:09;45.70;;;23.40;;
76814;SDS011;65768;49.906;19.384;2023-12-04T04:22:40;54.70;;;23.10;;
76814;SDS011;65768;49.906;19.384;2023-12-04T04:25:08;49.50;;;22.00;;
76814;SDS011;65768;49.906;19.384;2023-12-04T04:27:37;40.70;;;18.40;;
76814;SDS011;65768;49.906;19.384;2023-12-04T04:30:07;32.80;;;17.50;;
76814;SDS011;65768;49.906;19.384;2023-12-04T04:32:39;28.20;;;16.20;;
76814;SDS011;65768;49.906;19.384;2023-12-04T04:35:07;28.60;;;15.60;;
76814;SDS011;65768;49.906;19.384;2023-12-04T04:37:35;23.20;;;11.00;;
76814;SDS011;65768;49.906;19.384;2023-12-04T04:40:04;28.90;;;15.90;;
76814;SDS011;65768;49.906;19.384;2023-12-04T04:42:34;32.90;;;15.40;;
76814;SDS011;65768;49.906;19.384;2023-12-04T04:45:02;26.50;;;14.90;;
76814;SDS011;65768;49.906;19.384;2023-12-04T04:47:32;30.90;;;15.90;;
76814;SDS011;65768;49.906;19.384;2023-12-04T04:50:00;31.40;;;14.90;;
76814;SDS011;65768;49.906;19.384;2023-12-04T04:52:28;35.10;;;17.80;;
76814;SDS011;65768;49.906;19.384;2023-12-04T04:54:56;28.90;;;15.90;;
76814;SDS011;65768;49.906;19.384;2023-12-04T04:57:25;26.10;;;14.70;;
76814;SDS011;65768;49.906;19.384;2023-12-04T04:59:54;26.00;;;12.90;;
76814;SDS011;65768;49.906;19.384;2023-12-04T05:02:22;29.90;;;15.60;;
76814;SDS011;65768;49.906;19.384;2023-12-04T05:04:50;28.40;;;14.30;;
76814;SDS011;65768;49.906;19.384;2023-12-04T05:07:19;26.60;;;14.70;;
76814;SDS011;65768;49.906;19.384;2023-12-04T05:09:47;31.10;;;16.90;;
76814;SDS011;65768;49.906;19.384;2023-12-04T05:12:15;28.70;;;15.00;;
76814;SDS011;65768;49.906;19.384;2023-12-04T05:14:43;30.60;;;15.50;;
76814;SDS011;65768;49.906;19.384;2023-12-04T05:17:12;44.10;;;17.90;;
76814;SDS011;65768;49.906;19.384;2023-12-04T05:19:40;58.10;;;27.10;;
76814;SDS011;65768;49.906;19.384;2023-12-04T05:22:09;48.50;;;24.00;;
76814;SDS011;65768;49.906;19.384;2023-12-04T05:24:57;37.00;;;19.40;;
76814;SDS011;65768;49.906;19.384;2023-12-04T05:27:25;34.90;;;17.90;;
76814;SDS011;65768;49.906;19.384;2023-12-04T05:30:15;32.70;;;17.90;;
76814;SDS011;65768;49.906;19.384;2023-12-04T05:32:43;33.20;;;17.50;;
76814;SDS011;65768;49.906;19.384;2023-12-04T05:35:12;35.60;;;17.40;;
76814;SDS011;65768;49.906;19.384;2023-12-04T05:37:42;31.60;;;17.00;;
76814;SDS011;65768;49.906;19.384;2023-12-04T05:40:10;32.70;;;16.60;;
76814;SDS011;65768;49.906;19.384;2023-12-04T05:42:39;39.30;;;18.10;;
76814;SDS011;65768;49.906;19.384;2023-12-04T05:45:08;40.70;;;22.90;;
76814;SDS011;65768;49.906;19.384;2023-12-04T05:47:36;54.60;;;24.20;;
76814;SDS011;65768;49.906;19.384;2023-12-04T05:50:05;56.80;;;25.80;;
76814;SDS011;65768;49.906;19.384;2023-12-04T05:52:35;44.60;;;21.70;;
76814;SDS011;65768;49.906;19.384;2023-12-04T05:55:05;43.80;;;19.90;;
76814;SDS011;65768;49.906;19.384;2023-12-04T05:57:33;41.10;;;19.30;;
76814;SDS011;65768;49.906;19.384;2023-12-04T06:00:01;30.60;;;17.10;;
76814;SDS011;65768;49.906;19.384;2023-12-04T06:02:30;40.90;;;18.60;;
76814;SDS011;65768;49.906;19.384;2023-12-04T06:04:59;33.30;;;16.10;;
76814;SDS011;65768;49.906;19.384;2023-12-04T06:07:28;38.20;;;19.30;;
76814;SDS011;65768;49.906;19.384;2023-12-04T06:09:56;41.30;;;20.80;;
76814;SDS011;65768;49.906;19.384;2023-12-04T06:12:25;55.70;;;26.70;;
76814;SDS011;65768;49.906;19.384;2023-12-04T06:15:15;61.30;;;33.30;;
76814;SDS011;65768;49.906;19.384;2023-12-04T06:18:03;48.30;;;23.80;;
76814;SDS011;65768;49.906;19.384;2023-12-04T06:20:53;50.50;;;24.00;;
76814;SDS011;65768;49.906;19.384;2023-12-04T06:23:22;64.00;;;32.10;;
76814;SDS011;65768;49.906;19.384;2023-12-04T06:25:52;56.80;;;30.80;;
76814;SDS011;65768;49.906;19.384;2023-12-04T06:28:20;52.50;;;26.20;;
76814;SDS011;65768;49.906;19.384;2023-12-04T06:30:49;59.80;;;26.10;;
76814;SDS011;65768;49.906;19.384;2023-12-04T06:33:18;55.60;;;28.20;;
76814;SDS011;65768;49.906;19.384;2023-12-04T06:35:49;67.50;;;31.40;;
76814;SDS011;65768;49.906;19.384;2023-12-04T06:38:18;66.70;;;33.30;;
76814;SDS011;65768;49.906;19.384;2023-12-04T06:40:53;53.30;;;25.80;;
76814;SDS011;65768;49.906;19.384;2023-12-04T06:43:23;40.00;;;20.50;;
76814;SDS011;65768;49.906;19.384;2023-12-04T06:45:56;36.50;;;17.60;;
76814;SDS011;65768;49.906;19.384;2023-12-04T06:48:26;30.90;;;14.90;;
76814;SDS011;65768;49.906;19.384;2023-12-04T06:50:55;47.80;;;23.30;;
76814;SDS011;65768;49.906;19.384;2023-12-04T06:53:24;37.60;;;19.70;;
76814;SDS011;65768;49.906;19.384;2023-12-04T06:55:53;33.90;;;16.70;;
76814;SDS011;65768;49.906;19.384;2023-12-04T06:58:22;24.70;;;14.40;;
76814;SDS011;65768;49.906;19.384;2023-12-04T07:00:51;26.10;;;14.80;;
76814;SDS011;65768;49.906;19.384;2023-12-04T07:03:21;29.30;;;14.70;;
76814;SDS011;65768;49.906;19.384;2023-12-04T07:05:50;26.30;;;13.00;;
76814;SDS011;65768;49.906;19.384;2023-12-04T07:08:19;31.20;;;15.00;;
76814;SDS011;65768;49.906;19.384;2023-12-04T07:10:48;27.80;;;12.80;;
76814;SDS011;65768;49.906;19.384;2023-12-04T07:13:18;27.40;;;13.30;;
76814;SDS011;65768;49.906;19.384;2023-12-04T07:15:47;25.30;;;12.80;;
76814;SDS011;65768;49.906;19.384;2023-12-04T07:18:17;26.70;;;12.80;;
76814;SDS011;65768;49.906;19.384;2023-12-04T07:20:47;25.60;;;12.70;;
76814;SDS011;65768;49.906;19.384;2023-12-04T07:23:19;24.80;;;12.30;;
76814;SDS011;65768;49.906;19.384;2023-12-04T07:25:48;25.50;;;13.30;;
76814;SDS011;65768;49.906;19.384;2023-12-04T07:28:17;26.90;;;11.70;;
76814;SDS011;65768;49.906;19.384;2023-12-04T07:30:49;26.80;;;13.40;;
76814;SDS011;65768;49.906;19.384;2023-12-04T07:33:18;32.50;;;14.90;;
76814;SDS011;65768;49.906;19.384;2023-12-04T07:35:47;36.00;;;16.70;;
76814;SDS011;65768;49.906;19.384;2023-12-04T07:38:16;35.60;;;15.70;;
76814;SDS011;65768;49.906;19.384;2023-12-04T07:40:45;31.10;;;14.70;;
76814;SDS011;65768;49.906;19.384;2023-12-04T07:43:14;32.10;;;15.50;;
76814;SDS011;65768;49.906;19.384;2023-12-04T07:45:43;34.00;;;17.70;;
76814;SDS011;65768;49.906;19.384;2023-12-04T07:50:47;35.20;;;16.40;;
76814;SDS011;65768;49.906;19.384;2023-12-04T07:53:18;31.50;;;15.70;;
76814;SDS011;65768;49.906;19.384;2023-12-04T07:55:46;41.80;;;17.30;;
76814;SDS011;65768;49.906;19.384;2023-12-04T07:58:19;42.80;;;19.00;;
76814;SDS011;65768;49.906;19.384;2023-12-04T08:00:47;47.40;;;20.30;;
76814;SDS011;65768;49.906;19.384;2023-12-04T08:03:16;50.10;;;19.80;;
76814;SDS011;65768;49.906;19.384;2023-12-04T08:05:46;43.50;;;20.00;;
76814;SDS011;65768;49.906;19.384;2023-12-04T08:08:16;48.70;;;22.90;;
76814;SDS011;65768;49.906;19.384;2023-12-04T08:10:44;43.30;;;22.40;;
76814;SDS011;65768;49.906;19.384;2023-12-04T08:13:13;52.20;;;22.60;;
76814;SDS011;65768;49.906;19.384;2023-12-04T08:15:44;43.40;;;21.20;;
76814;SDS011;65768;49.906;19.384;2023-12-04T08:18:12;56.10;;;22.70;;
76814;SDS011;65768;49.906;19.384;2023-12-04T08:20:41;51.80;;;22.50;;
76814;SDS011;65768;49.906;19.384;2023-12-04T08:23:10;43.80;;;20.20;;
76814;SDS011;65768;49.906;19.384;2023-12-04T08:25:38;62.00;;;28.40;;
76814;SDS011;65768;49.906;19.384;2023-12-04T08:28:07;58.70;;;25.60;;
76814;SDS011;65768;49.906;19.384;2023-12-04T08:30:37;61.10;;;26.70;;
76814;SDS011;65768;49.906;19.384;2023-12-04T08:33:06;64.00;;;26.60;;
76814;SDS011;65768;49.906;19.384;2023-12-04T08:35:35;56.00;;;24.70;;
76814;SDS011;65768;49.906;19.384;2023-12-04T08:38:04;50.70;;;20.60;;
76814;SDS011;65768;49.906;19.384;2023-12-04T08:40:35;46.10;;;21.90;;
76814;SDS011;65768;49.906;19.384;2023-12-04T08:43:03;49.10;;;23.20;;
76814;SDS011;65768;49.906;19.384;2023-12-04T08:45:32;56.30;;;24.30;;
76814;SDS011;65768;49.906;19.384;2023-12-04T08:48:01;58.80;;;27.50;;
76814;SDS011;65768;49.906;19.384;2023-12-04T08:50:30;46.10;;;22.30;;
76814;SDS011;65768;49.906;19.384;2023-12-04T08:52:59;22.10;;;10.40;;
76814;SDS011;65768;49.906;19.384;2023-12-04T08:55:27;14.80;;;7.30;;
76814;SDS011;65768;49.906;19.384;2023-12-04T08:57:55;13.20;;;5.20;;
76814;SDS011;65768;49.906;19.384;2023-12-04T09:00:24;10.50;;;5.50;;
76814;SDS011;65768;49.906;19.384;2023-12-04T09:02:52;11.60;;;5.20;;
76814;SDS011;65768;49.906;19.384;2023-12-04T09:05:21;10.30;;;4.90;;
76814;SDS011;65768;49.906;19.384;2023-12-04T09:07:49;10.70;;;4.70;;
76814;SDS011;65768;49.906;19.384;2023-12-04T09:10:18;9.90;;;5.10;;
76814;SDS011;65768;49.906;19.384;2023-12-04T09:12:47;9.60;;;5.40;;
76814;SDS011;65768;49.906;19.384;2023-12-04T09:15:15;12.50;;;5.20;;
76814;SDS011;65768;49.906;19.384;2023-12-04T09:17:45;9.50;;;5.10;;
76814;SDS011;65768;49.906;19.384;2023-12-04T09:20:14;9.00;;;4.60;;
76814;SDS011;65768;49.906;19.384;2023-12-04T09:22:43;8.60;;;4.30;;
76814;SDS011;65768;49.906;19.384;2023-12-04T09:25:11;11.70;;;5.30;;
76814;SDS011;65768;49.906;19.384;2023-12-04T09:27:39;10.60;;;4.50;;
76814;SDS011;65768;49.906;19.384;2023-12-04T09:30:08;10.60;;;5.40;;
76814;SDS011;65768;49.906;19.384;2023-12-04T09:32:37;11.40;;;5.50;;
76814;SDS011;65768;49.906;19.384;2023-12-04T09:35:06;11.20;;;4.70;;
76814;SDS011;65768;49.906;19.384;2023-12-04T09:37:36;10.00;;;5.10;;
76814;SDS011;65768;49.906;19.384;2023-12-04T09:40:04;10.30;;;3.80;;
76814;SDS011;65768;49.906;19.384;2023-12-04T09:42:55;11.80;;;4.50;;
76814;SDS011;65768;49.906;19.384;2023-12-04T09:45:25;11.20;;;4.80;;
76814;SDS011;65768;49.906;19.384;2023-12-04T09:47:57;9.90;;;4.80;;
76814;SDS011;65768;49.906;19.384;2023-12-04T09:50:27;12.80;;;5.10;;
76814;SDS011;65768;49.906;19.384;2023-12-04T09:52:56;9.80;;;4.80;;
76814;SDS011;65768;49.906;19.384;2023-12-04T09:55:31;9.00;;;4.30;;
76814;SDS011;65768;49.906;19.384;2023-12-04T09:58:00;12.90;;;5.60;;
76814;SDS011;65768;49.906;19.384;2023-12-04T10:00:30;9.90;;;5.50;;
76814;SDS011;65768;49.906;19.384;2023-12-04T10:03:00;11.10;;;5.40;;
76814;SDS011;65768;49.906;19.384;2023-12-04T10:05:30;11.60;;;4.80;;
76814;SDS011;65768;49.906;19.384;2023-12-04T10:07:58;8.80;;;4.80;;
76814;SDS011;65768;49.906;19.384;2023-12-04T10:10:27;8.00;;;4.50;;
76814;SDS011;65768;49.906;19.384;2023-12-04T10:12:56;7.90;;;4.50;;
76814;SDS011;65768;49.906;19.384;2023-12-04T10:15:24;6.40;;;3.60;;
76814;SDS011;65768;49.906;19.384;2023-12-04T10:17:52;7.70;;;4.20;;
76814;SDS011;65768;49.906;19.384;2023-12-04T10:20:22;8.40;;;3.60;;
76814;SDS011;65768;49.906;19.384;2023-12-04T10:22:53;10.00;;;4.70;;
76814;SDS011;65768;49.906;19.384;2023-12-04T10:25:23;6.30;;;3.40;;
76814;SDS011;65768;49.906;19.384;2023-12-04T10:27:54;7.30;;;4.10;;
76814;SDS011;65768;49.906;19.384;2023-12-04T10:30:43;7.40;;;3.90;;
76814;SDS011;65768;49.906;19.384;2023-12-04T10:33:13;7.30;;;3.90;;
76814;SDS011;65768;49.906;19.384;2023-12-04T10:35:42;8.60;;;4.60;;
76814;SDS011;65768;49.906;19.384;2023-12-04T10:38:12;7.80;;;3.80;;
76814;SDS011;65768;49.906;19.384;2023-12-04T10:40:42;8.00;;;4.90;;
76814;SDS011;65768;49.906;19.384;2023-12-04T10:43:14;10.20;;;4.80;;
76814;SDS011;65768;49.906;19.384;2023-12-04T10:45:46;10.40;;;5.00;;
76814;SDS011;65768;49.906;19.384;2023-12-04T10:48:17;12.10;;;6.10;;
76814;SDS011;65768;49.906;19.384;2023-12-04T10:50:48;10.90;;;5.20;;
76814;SDS011;65768;49.906;19.384;2023-12-04T10:53:17;11.50;;;5.00;;
76814;SDS011;65768;49.906;19.384;2023-12-04T10:55:45;8.60;;;4.60;;
76814;SDS011;65768;49.906;19.384;2023-12-04T10:58:19;10.90;;;4.80;;
76814;SDS011;65768;49.906;19.384;2023-12-04T11:00:50;8.80;;;4.30;;
76814;SDS011;65768;49.906;19.384;2023-12-04T11:03:25;8.00;;;4.00;;
76814;SDS011;65768;49.906;19.384;2023-12-04T11:06:01;8.80;;;3.90;;
76814;SDS011;65768;49.906;19.384;2023-12-04T11:08:35;6.30;;;3.70;;
76814;SDS011;65768;49.906;19.384;2023-12-04T11:11:08;8.60;;;3.40;;
76814;SDS011;65768;49.906;19.384;2023-12-04T11:13:45;8.10;;;3.70;;
76814;SDS011;65768;49.906;19.384;2023-12-04T11:19:27;17.30;;;7.50;;
76814;SDS011;65768;49.906;19.384;2023-12-04T11:22:02;16.80;;;8.10;;
76814;SDS011;65768;49.906;19.384;2023-12-04T11:24:32;16.00;;;8.00;;
76814;SDS011;65768;49.906;19.384;2023-12-04T11:27:03;24.30;;;11.60;;
76814;SDS011;65768;49.906;19.384;2023-12-04T11:29:34;25.30;;;12.30;;
76814;SDS011;65768;49.906;19.384;2023-12-04T11:32:06;22.50;;;10.60;;
76814;SDS011;65768;49.906;19.384;2023-12-04T11:34:35;26.90;;;13.60;;
76814;SDS011;65768;49.906;19.384;2023-12-04T11:37:06;28.50;;;12.20;;
76814;SDS011;65768;49.906;19.384;2023-12-04T11:39:34;22.80;;;11.40;;
76814;SDS011;65768;49.906;19.384;2023-12-04T11:42:05;28.00;;;13.10;;
76814;SDS011;65768;49.906;19.384;2023-12-04T11:44:35;29.60;;;14.90;;
76814;SDS011;65768;49.906;19.384;2023-12-04T11:47:04;28.90;;;14.30;;
76814;SDS011;65768;49.906;19.384;2023-12-04T11:49:34;28.30;;;14.40;;
76814;SDS011;65768;49.906;19.384;2023-12-04T11:52:05;34.10;;;15.00;;
76814;SDS011;65768;49.906;19.384;2023-12-04T11:57:32;30.40;;;13.70;;
76814;SDS011;65768;49.906;19.384;2023-12-04T12:00:19;29.10;;;13.90;;
76814;SDS011;65768;49.906;19.384;2023-12-04T12:05:23;26.00;;;11.80;;
76814;SDS011;65768;49.906;19.384;2023-12-04T12:07:53;23.00;;;10.20;;
76814;SDS011;65768;49.906;19.384;2023-12-04T12:10:22;19.00;;;10.10;;
76814;SDS011;65768;49.906;19.384;2023-12-04T12:12:51;21.30;;;10.50;;
76814;SDS011;65768;49.906;19.384;2023-12-04T12:15:20;21.80;;;9.20;;
76814;SDS011;65768;49.906;19.384;2023-12-04T12:17:48;21.70;;;10.30;;
76814;SDS011;65768;49.906;19.384;2023-12-04T12:20:21;23.20;;;11.30;;
76814;SDS011;65768;49.906;19.384;2023-12-04T12:22:51;19.00;;;10.20;;
76814;SDS011;65768;49.906;19.384;2023-12-04T12:25:21;25.10;;;10.60;;
76814;SDS011;65768;49.906;19.384;2023-12-04T12:27:50;23.20;;;11.10;;
76814;SDS011;65768;49.906;19.384;2023-12-04T12:30:19;24.60;;;11.90;;
76814;SDS011;65768;49.906;19.384;2023-12-04T12:32:47;24.80;;;11.10;;
76814;SDS011;65768;49.906;19.384;2023-12-04T12:35:19;17.50;;;10.00;;
76814;SDS011;65768;49.906;19.384;2023-12-04T12:37:47;16.70;;;10.00;;
76814;SDS011;65768;49.906;19.384;2023-12-04T12:40:17;25.20;;;12.10;;
76814;SDS011;65768;49.906;19.384;2023-12-04T12:42:46;19.50;;;11.00;;
76814;SDS011;65768;49.906;19.384;2023-12-04T12:45:16;25.30;;;11.50;;
76814;SDS011;65768;49.906;19.384;2023-12-04T12:47:45;24.60;;;11.70;;
76814;SDS011;65768;49.906;19.384;2023-12-04T12:50:15;23.40;;;11.90;;
76814;SDS011;65768;49.906;19.384;2023-12-04T12:52:43;21.70;;;11.40;;
76814;SDS011;65768;49.906;19.384;2023-12-04T12:55:22;26.90;;;12.30;;
76814;SDS011;65768;49.906;19.384;2023-12-04T13:02:52;22.60;;;10.80;;
76814;SDS011;65768;49.906;19.384;2023-12-04T13:05:22;22.50;;;11.50;;
76814;SDS011;65768;49.906;19.384;2023-12-04T13:07:50;23.50;;;12.20;;
76814;SDS011;65768;49.906;19.384;2023-12-04T13:10:18;24.80;;;12.00;;
76814;SDS011;65768;49.906;19.384;2023-12-04T13:12:48;25.40;;;12.20;;
76814;SDS011;65768;49.906;19.384;2023-12-04T13:15:20;28.30;;;13.30;;
76814;SDS011;65768;49.906;19.384;2023-12-04T13:17:49;25.00;;;11.90;;
76814;SDS011;65768;49.906;19.384;2023-12-04T13:20:19;24.60;;;11.60;;
76814;SDS011;65768;49.906;19.384;2023-12-04T13:22:47;26.00;;;12.60;;
76814;SDS011;65768;49.906;19.384;2023-12-04T13:25:16;25.30;;;12.90;;
76814;SDS011;65768;49.906;19.384;2023-12-04T13:27:44;28.20;;;12.50;;
76814;SDS011;65768;49.906;19.384;2023-12-04T13:30:13;25.30;;;12.80;;
76814;SDS011;65768;49.906;19.384;2023-12-04T13:32:42;33.00;;;13.70;;
76814;SDS011;65768;49.906;19.384;2023-12-04T13:35:11;27.30;;;14.00;;
76814;SDS011;65768;49.906;19.384;2023-12-04T13:37:41;34.00;;;14.90;;
76814;SDS011;65768;49.906;19.384;2023-12-04T13:40:11;29.90;;;14.00;;
76814;SDS011;65768;49.906;19.384;2023-12-04T13:42:46;26.00;;;14.00;;
76814;SDS011;65768;49.906;19.384;2023-12-04T13:45:34;26.10;;;12.90;;
76814;SDS011;65768;49.906;19.384;2023-12-04T13:48:04;28.90;;;13.10;;
76814;SDS011;65768;49.906;19.384;2023-12-04T13:50:33;34.00;;;13.70;;
76814;SDS011;65768;49.906;19.384;2023-12-04T13:53:01;34.80;;;15.90;;
76814;SDS011;65768;49.906;19.384;2023-12-04T13:55:31;30.60;;;14.50;;
76814;SDS011;65768;49.906;19.384;2023-12-04T13:58:27;31.20;;;14.70;;
76814;SDS011;65768;49.906;19.384;2023-12-04T14:01:07;41.60;;;17.60;;
76814;SDS011;65768;49.906;19.384;2023-12-04T14:03:42;36.10;;;16.70;;
76814;SDS011;65768;49.906;19.384;2023-12-04T14:06:13;29.60;;;15.30;;
76814;SDS011;65768;49.906;19.384;2023-12-04T14:08:44;30.40;;;14.30;;
76814;SDS011;65768;49.906;19.384;2023-12-04T14:11:14;39.40;;;18.00;;
76814;SDS011;65768;49.906;19.384;2023-12-04T14:13:42;33.80;;;16.40;;
76814;SDS011;65768;49.906;19.384;2023-12-04T14:16:11;40.60;;;18.20;;
76814;SDS011;65768;49.906;19.384;2023-12-04T14:18:44;42.60;;;18.60;;
76814;SDS011;65768;49.906;19.384;2023-12-04T14:21:13;42.60;;;18.70;;
76814;SDS011;65768;49.906;19.384;2023-12-04T14:23:42;42.10;;;18.80;;
76814;SDS011;65768;49.906;19.384;2023-12-04T14:26:11;36.70;;;16.80;;
76814;SDS011;65768;49.906;19.384;2023-12-04T14:28:40;43.10;;;18.90;;
76814;SDS011;65768;49.906;19.384;2023-12-04T14:31:09;44.40;;;18.70;;
76814;SDS011;65768;49.906;19.384;2023-12-04T14:33:39;40.80;;;19.20;;
76814;SDS011;65768;49.906;19.384;2023-12-04T14:36:08;42.80;;;17.70;;
76814;SDS011;65768;49.906;19.384;2023-12-04T14:38:59;40.70;;;16.20;;
76814;SDS011;65768;49.906;19.384;2023-12-04T14:41:36;36.60;;;15.00;;
76814;SDS011;65768;49.906;19.384;2023-12-04T14:45:06;39.80;;;18.40;;
76814;SDS011;65768;49.906;19.384;2023-12-04T14:49:15;39.50;;;15.70;;
76814;SDS011;65768;49.906;19.384;2023-12-04T14:53:24;39.20;;;19.40;;